Terminal Aerodrome Forecast
Issued by NWS

Home | Current Version | Previous Version | Text Only | Print | Product List | Glossary On
Versions: 1 2 3 4 5 6 7 8 9 10 11 12 13
000
FTUS45 KABQ 290542
TAFTCC
TAF
KTCC 290542Z 2906/3006 06008KT P6SM BKN150
     FM291100 06008KT P6SM SCT015
     FM291600 06012G20KT P6SM SCT250
     FM292200 09011KT P6SM VCTS SCT070CB BKN130=

USA.gov is the U.S. government's official web portal to all federal, state and local government web resources and services.